sensor_id;sensor_type;location;lat;lon;timestamp;P1;durP1;ratioP1;P2;durP2;ratioP2
48199;SDS011;33990;44.602;10.976;2022-09-09T00:00:11;5.70;;;3.28;;
48199;SDS011;33990;44.602;10.976;2022-09-09T00:02:39;5.63;;;3.45;;
48199;SDS011;33990;44.602;10.976;2022-09-09T00:08:03;4.47;;;3.08;;
48199;SDS011;33990;44.602;10.976;2022-09-09T00:10:34;5.72;;;3.55;;
48199;SDS011;33990;44.602;10.976;2022-09-09T00:13:15;4.75;;;2.90;;
48199;SDS011;33990;44.602;10.976;2022-09-09T00:19:22;6.95;;;3.30;;
48199;SDS011;33990;44.602;10.976;2022-09-09T00:24:35;4.90;;;2.88;;
48199;SDS011;33990;44.602;10.976;2022-09-09T00:27:11;4.13;;;2.67;;
48199;SDS011;33990;44.602;10.976;2022-09-09T00:29:55;3.65;;;2.80;;
48199;SDS011;33990;44.602;10.976;2022-09-09T00:32:28;4.97;;;3.15;;
48199;SDS011;33990;44.602;10.976;2022-09-09T00:34:59;7.13;;;3.25;;
48199;SDS011;33990;44.602;10.976;2022-09-09T00:37:53;6.03;;;3.00;;
48199;SDS011;33990;44.602;10.976;2022-09-09T00:51:30;3.58;;;2.90;;
48199;SDS011;33990;44.602;10.976;2022-09-09T00:59:52;5.70;;;3.13;;
48199;SDS011;33990;44.602;10.976;2022-09-09T01:02:31;7.03;;;3.10;;
48199;SDS011;33990;44.602;10.976;2022-09-09T01:05:27;4.45;;;2.97;;
48199;SDS011;33990;44.602;10.976;2022-09-09T01:08:05;4.90;;;2.90;;
48199;SDS011;33990;44.602;10.976;2022-09-09T01:10:50;6.25;;;3.38;;
48199;SDS011;33990;44.602;10.976;2022-09-09T01:13:27;5.85;;;3.17;;
48199;SDS011;33990;44.602;10.976;2022-09-09T01:16:01;4.43;;;2.67;;
48199;SDS011;33990;44.602;10.976;2022-09-09T01:18:34;4.68;;;2.85;;
48199;SDS011;33990;44.602;10.976;2022-09-09T01:29:07;4.75;;;2.72;;
48199;SDS011;33990;44.602;10.976;2022-09-09T01:34:12;3.45;;;3.03;;
48199;SDS011;33990;44.602;10.976;2022-09-09T01:39:27;4.72;;;3.38;;
48199;SDS011;33990;44.602;10.976;2022-09-09T01:42:03;6.22;;;3.03;;
48199;SDS011;33990;44.602;10.976;2022-09-09T01:44:33;5.10;;;3.45;;
48199;SDS011;33990;44.602;10.976;2022-09-09T01:47:03;4.45;;;3.33;;
48199;SDS011;33990;44.602;10.976;2022-09-09T01:49:33;3.95;;;3.17;;
48199;SDS011;33990;44.602;10.976;2022-09-09T01:52:07;5.60;;;2.97;;
48199;SDS011;33990;44.602;10.976;2022-09-09T01:54:37;4.05;;;3.22;;
48199;SDS011;33990;44.602;10.976;2022-09-09T02:08:11;4.00;;;2.88;;
48199;SDS011;33990;44.602;10.976;2022-09-09T02:14:00;6.43;;;3.33;;
48199;SDS011;33990;44.602;10.976;2022-09-09T02:16:40;6.38;;;3.40;;
48199;SDS011;33990;44.602;10.976;2022-09-09T02:19:16;4.88;;;3.70;;
48199;SDS011;33990;44.602;10.976;2022-09-09T02:22:15;4.10;;;3.20;;
48199;SDS011;33990;44.602;10.976;2022-09-09T02:24:46;4.57;;;3.17;;
48199;SDS011;33990;44.602;10.976;2022-09-09T02:27:20;4.65;;;3.30;;
48199;SDS011;33990;44.602;10.976;2022-09-09T02:29:49;3.15;;;2.67;;
48199;SDS011;33990;44.602;10.976;2022-09-09T02:32:32;4.60;;;3.07;;
48199;SDS011;33990;44.602;10.976;2022-09-09T02:35:08;5.45;;;3.63;;
48199;SDS011;33990;44.602;10.976;2022-09-09T02:37:42;6.45;;;3.30;;
48199;SDS011;33990;44.602;10.976;2022-09-09T02:40:16;3.97;;;3.13;;
48199;SDS011;33990;44.602;10.976;2022-09-09T02:42:48;3.65;;;2.90;;
48199;SDS011;33990;44.602;10.976;2022-09-09T02:45:19;5.88;;;2.85;;
48199;SDS011;33990;44.602;10.976;2022-09-09T02:50:39;4.72;;;4.10;;
48199;SDS011;33990;44.602;10.976;2022-09-09T02:53:19;4.85;;;3.22;;
48199;SDS011;33990;44.602;10.976;2022-09-09T02:58:25;4.22;;;2.90;;
48199;SDS011;33990;44.602;10.976;2022-09-09T03:03:26;5.45;;;3.42;;
48199;SDS011;33990;44.602;10.976;2022-09-09T03:05:55;8.75;;;4.28;;
48199;SDS011;33990;44.602;10.976;2022-09-09T03:08:26;5.88;;;3.95;;
48199;SDS011;33990;44.602;10.976;2022-09-09T03:10:55;6.30;;;3.38;;
48199;SDS011;33990;44.602;10.976;2022-09-09T03:13:27;4.10;;;3.30;;
48199;SDS011;33990;44.602;10.976;2022-09-09T03:15:54;6.70;;;3.53;;
48199;SDS011;33990;44.602;10.976;2022-09-09T03:18:22;5.50;;;4.68;;
48199;SDS011;33990;44.602;10.976;2022-09-09T03:20:52;5.82;;;3.60;;
48199;SDS011;33990;44.602;10.976;2022-09-09T03:23:21;5.55;;;3.70;;
48199;SDS011;33990;44.602;10.976;2022-09-09T03:25:49;6.60;;;3.50;;
48199;SDS011;33990;44.602;10.976;2022-09-09T03:28:24;5.13;;;3.30;;
48199;SDS011;33990;44.602;10.976;2022-09-09T03:31:00;4.90;;;3.42;;
48199;SDS011;33990;44.602;10.976;2022-09-09T03:33:32;6.22;;;4.50;;
48199;SDS011;33990;44.602;10.976;2022-09-09T03:36:01;4.95;;;3.85;;
48199;SDS011;33990;44.602;10.976;2022-09-09T03:38:29;5.88;;;3.92;;
48199;SDS011;33990;44.602;10.976;2022-09-09T03:40:58;5.00;;;3.83;;
48199;SDS011;33990;44.602;10.976;2022-09-09T03:43:26;3.63;;;3.10;;
48199;SDS011;33990;44.602;10.976;2022-09-09T03:45:54;5.50;;;3.92;;
48199;SDS011;33990;44.602;10.976;2022-09-09T03:48:26;7.40;;;3.13;;
48199;SDS011;33990;44.602;10.976;2022-09-09T03:50:55;7.88;;;4.55;;
48199;SDS011;33990;44.602;10.976;2022-09-09T03:53:25;7.28;;;4.10;;
48199;SDS011;33990;44.602;10.976;2022-09-09T03:55:54;5.25;;;3.55;;
48199;SDS011;33990;44.602;10.976;2022-09-09T03:58:25;6.07;;;3.70;;
48199;SDS011;33990;44.602;10.976;2022-09-09T04:00:59;4.03;;;3.53;;
48199;SDS011;33990;44.602;10.976;2022-09-09T04:03:28;4.30;;;3.42;;
48199;SDS011;33990;44.602;10.976;2022-09-09T04:05:57;6.20;;;3.90;;
48199;SDS011;33990;44.602;10.976;2022-09-09T04:08:29;6.13;;;3.43;;
48199;SDS011;33990;44.602;10.976;2022-09-09T04:11:00;5.23;;;3.70;;
48199;SDS011;33990;44.602;10.976;2022-09-09T04:13:34;6.88;;;4.00;;
48199;SDS011;33990;44.602;10.976;2022-09-09T04:16:02;6.78;;;3.65;;
48199;SDS011;33990;44.602;10.976;2022-09-09T04:18:33;5.00;;;3.97;;
48199;SDS011;33990;44.602;10.976;2022-09-09T04:21:02;5.13;;;4.15;;
48199;SDS011;33990;44.602;10.976;2022-09-09T04:23:32;4.05;;;3.25;;
48199;SDS011;33990;44.602;10.976;2022-09-09T04:26:01;5.88;;;4.20;;
48199;SDS011;33990;44.602;10.976;2022-09-09T04:28:32;6.95;;;3.97;;
48199;SDS011;33990;44.602;10.976;2022-09-09T04:33:38;6.45;;;3.85;;
48199;SDS011;33990;44.602;10.976;2022-09-09T04:36:08;5.70;;;3.65;;
48199;SDS011;33990;44.602;10.976;2022-09-09T04:38:35;8.05;;;3.92;;
48199;SDS011;33990;44.602;10.976;2022-09-09T04:41:04;7.18;;;3.80;;
48199;SDS011;33990;44.602;10.976;2022-09-09T04:43:33;6.63;;;4.00;;
48199;SDS011;33990;44.602;10.976;2022-09-09T04:46:03;5.45;;;3.50;;
48199;SDS011;33990;44.602;10.976;2022-09-09T04:48:31;6.15;;;4.18;;
48199;SDS011;33990;44.602;10.976;2022-09-09T04:51:01;7.15;;;3.72;;
48199;SDS011;33990;44.602;10.976;2022-09-09T04:53:33;4.88;;;3.40;;
48199;SDS011;33990;44.602;10.976;2022-09-09T04:56:05;4.53;;;3.80;;
48199;SDS011;33990;44.602;10.976;2022-09-09T04:58:42;5.32;;;3.47;;
48199;SDS011;33990;44.602;10.976;2022-09-09T05:03:45;5.47;;;4.00;;
48199;SDS011;33990;44.602;10.976;2022-09-09T05:06:18;4.45;;;3.70;;
48199;SDS011;33990;44.602;10.976;2022-09-09T05:08:48;5.67;;;4.07;;
48199;SDS011;33990;44.602;10.976;2022-09-09T05:11:24;6.28;;;3.75;;
48199;SDS011;33990;44.602;10.976;2022-09-09T05:13:58;5.60;;;3.38;;
48199;SDS011;33990;44.602;10.976;2022-09-09T05:16:28;7.07;;;4.00;;
48199;SDS011;33990;44.602;10.976;2022-09-09T05:18:56;4.57;;;3.83;;
48199;SDS011;33990;44.602;10.976;2022-09-09T05:21:25;5.80;;;4.40;;
48199;SDS011;33990;44.602;10.976;2022-09-09T05:23:54;4.30;;;3.30;;
48199;SDS011;33990;44.602;10.976;2022-09-09T05:26:22;4.20;;;3.50;;
48199;SDS011;33990;44.602;10.976;2022-09-09T05:28:51;6.25;;;4.18;;
48199;SDS011;33990;44.602;10.976;2022-09-09T05:31:19;6.07;;;3.92;;
48199;SDS011;33990;44.602;10.976;2022-09-09T05:33:50;5.97;;;4.32;;
48199;SDS011;33990;44.602;10.976;2022-09-09T05:36:18;6.97;;;4.20;;
48199;SDS011;33990;44.602;10.976;2022-09-09T05:38:50;4.43;;;3.70;;
48199;SDS011;33990;44.602;10.976;2022-09-09T05:41:21;6.63;;;4.43;;
48199;SDS011;33990;44.602;10.976;2022-09-09T05:43:52;6.97;;;3.78;;
48199;SDS011;33990;44.602;10.976;2022-09-09T05:46:21;6.55;;;4.32;;
48199;SDS011;33990;44.602;10.976;2022-09-09T05:48:52;5.97;;;4.03;;
48199;SDS011;33990;44.602;10.976;2022-09-09T05:51:28;4.53;;;3.88;;
48199;SDS011;33990;44.602;10.976;2022-09-09T05:53:59;6.00;;;4.30;;
48199;SDS011;33990;44.602;10.976;2022-09-09T05:56:30;6.22;;;3.85;;
48199;SDS011;33990;44.602;10.976;2022-09-09T05:58:58;7.20;;;3.75;;
48199;SDS011;33990;44.602;10.976;2022-09-09T06:01:31;7.60;;;4.03;;
48199;SDS011;33990;44.602;10.976;2022-09-09T06:04:01;5.90;;;3.97;;
48199;SDS011;33990;44.602;10.976;2022-09-09T06:06:32;5.60;;;4.30;;
48199;SDS011;33990;44.602;10.976;2022-09-09T06:09:08;6.35;;;4.43;;
48199;SDS011;33990;44.602;10.976;2022-09-09T06:11:39;8.80;;;3.97;;
48199;SDS011;33990;44.602;10.976;2022-09-09T06:14:08;7.18;;;4.93;;
48199;SDS011;33990;44.602;10.976;2022-09-09T06:16:37;5.55;;;4.13;;
48199;SDS011;33990;44.602;10.976;2022-09-09T06:19:22;11.50;;;3.97;;
48199;SDS011;33990;44.602;10.976;2022-09-09T06:21:55;5.15;;;3.60;;
48199;SDS011;33990;44.602;10.976;2022-09-09T06:24:22;7.72;;;3.90;;
48199;SDS011;33990;44.602;10.976;2022-09-09T06:26:50;5.80;;;3.40;;
48199;SDS011;33990;44.602;10.976;2022-09-09T06:29:25;7.50;;;3.60;;
48199;SDS011;33990;44.602;10.976;2022-09-09T06:31:52;3.65;;;3.30;;
48199;SDS011;33990;44.602;10.976;2022-09-09T06:34:22;5.45;;;2.80;;
48199;SDS011;33990;44.602;10.976;2022-09-09T06:36:54;5.35;;;3.50;;
48199;SDS011;33990;44.602;10.976;2022-09-09T06:39:22;4.85;;;2.92;;
48199;SDS011;33990;44.602;10.976;2022-09-09T06:41:49;4.03;;;3.20;;
48199;SDS011;33990;44.602;10.976;2022-09-09T06:44:48;9.00;;;3.35;;
48199;SDS011;33990;44.602;10.976;2022-09-09T06:47:27;10.38;;;5.47;;
48199;SDS011;33990;44.602;10.976;2022-09-09T06:49:57;8.98;;;5.97;;
48199;SDS011;33990;44.602;10.976;2022-09-09T06:52:25;8.48;;;5.05;;
48199;SDS011;33990;44.602;10.976;2022-09-09T06:54:54;6.55;;;4.70;;
48199;SDS011;33990;44.602;10.976;2022-09-09T06:57:22;8.35;;;4.90;;
48199;SDS011;33990;44.602;10.976;2022-09-09T07:00:04;5.97;;;4.78;;
48199;SDS011;33990;44.602;10.976;2022-09-09T07:02:32;7.72;;;4.68;;
48199;SDS011;33990;44.602;10.976;2022-09-09T07:05:06;8.00;;;5.68;;
48199;SDS011;33990;44.602;10.976;2022-09-09T07:07:35;10.02;;;6.90;;
48199;SDS011;33990;44.602;10.976;2022-09-09T07:10:04;10.93;;;6.28;;
48199;SDS011;33990;44.602;10.976;2022-09-09T07:12:32;8.68;;;6.57;;
48199;SDS011;33990;44.602;10.976;2022-09-09T07:15:00;9.50;;;6.97;;
48199;SDS011;33990;44.602;10.976;2022-09-09T07:17:27;6.78;;;6.10;;
48199;SDS011;33990;44.602;10.976;2022-09-09T07:19:57;7.35;;;5.70;;
48199;SDS011;33990;44.602;10.976;2022-09-09T07:22:25;12.18;;;7.85;;
48199;SDS011;33990;44.602;10.976;2022-09-09T07:24:52;11.02;;;7.70;;
48199;SDS011;33990;44.602;10.976;2022-09-09T07:27:19;10.43;;;8.23;;
48199;SDS011;33990;44.602;10.976;2022-09-09T07:29:48;9.05;;;7.82;;
48199;SDS011;33990;44.602;10.976;2022-09-09T07:32:15;10.25;;;6.82;;
48199;SDS011;33990;44.602;10.976;2022-09-09T07:34:43;9.35;;;7.70;;
48199;SDS011;33990;44.602;10.976;2022-09-09T07:37:10;12.30;;;10.02;;
48199;SDS011;33990;44.602;10.976;2022-09-09T07:39:42;11.07;;;9.48;;
48199;SDS011;33990;44.602;10.976;2022-09-09T07:42:11;18.15;;;10.10;;
48199;SDS011;33990;44.602;10.976;2022-09-09T07:44:39;15.27;;;9.93;;
48199;SDS011;33990;44.602;10.976;2022-09-09T07:47:10;15.40;;;11.65;;
48199;SDS011;33990;44.602;10.976;2022-09-09T07:49:42;18.37;;;11.57;;
48199;SDS011;33990;44.602;10.976;2022-09-09T07:52:10;17.80;;;12.73;;
48199;SDS011;33990;44.602;10.976;2022-09-09T07:54:45;15.30;;;13.02;;
48199;SDS011;33990;44.602;10.976;2022-09-09T07:57:13;15.45;;;12.52;;
48199;SDS011;33990;44.602;10.976;2022-09-09T07:59:42;12.75;;;11.05;;
48199;SDS011;33990;44.602;10.976;2022-09-09T08:02:09;15.10;;;10.73;;
48199;SDS011;33990;44.602;10.976;2022-09-09T08:04:37;12.68;;;10.32;;
48199;SDS011;33990;44.602;10.976;2022-09-09T08:07:04;14.02;;;11.70;;
48199;SDS011;33990;44.602;10.976;2022-09-09T08:09:39;13.70;;;12.27;;
48199;SDS011;33990;44.602;10.976;2022-09-09T08:12:13;15.48;;;12.77;;
48199;SDS011;33990;44.602;10.976;2022-09-09T08:14:41;14.18;;;12.68;;
48199;SDS011;33990;44.602;10.976;2022-09-09T08:17:08;16.50;;;14.70;;
48199;SDS011;33990;44.602;10.976;2022-09-09T08:19:36;15.80;;;13.70;;
48199;SDS011;33990;44.602;10.976;2022-09-09T08:22:09;16.45;;;14.15;;
48199;SDS011;33990;44.602;10.976;2022-09-09T08:24:39;16.77;;;14.77;;
48199;SDS011;33990;44.602;10.976;2022-09-09T08:27:07;17.13;;;15.43;;
48199;SDS011;33990;44.602;10.976;2022-09-09T08:29:37;19.45;;;15.73;;
48199;SDS011;33990;44.602;10.976;2022-09-09T08:32:05;19.77;;;16.33;;
48199;SDS011;33990;44.602;10.976;2022-09-09T08:34:33;18.27;;;15.80;;
48199;SDS011;33990;44.602;10.976;2022-09-09T08:37:06;17.35;;;13.82;;
48199;SDS011;33990;44.602;10.976;2022-09-09T08:39:37;18.73;;;14.52;;
48199;SDS011;33990;44.602;10.976;2022-09-09T08:42:08;16.35;;;13.43;;
48199;SDS011;33990;44.602;10.976;2022-09-09T08:55:58;19.80;;;15.73;;
48199;SDS011;33990;44.602;10.976;2022-09-09T08:58:58;20.95;;;15.13;;
48199;SDS011;33990;44.602;10.976;2022-09-09T09:01:42;18.65;;;14.95;;
48199;SDS011;33990;44.602;10.976;2022-09-09T09:13:12;18.50;;;15.57;;
48199;SDS011;33990;44.602;10.976;2022-09-09T09:15:44;22.30;;;16.83;;
48199;SDS011;33990;44.602;10.976;2022-09-09T09:18:17;18.35;;;14.52;;
48199;SDS011;33990;44.602;10.976;2022-09-09T09:23:57;15.38;;;13.00;;
48199;SDS011;33990;44.602;10.976;2022-09-09T09:26:33;17.25;;;12.98;;
48199;SDS011;33990;44.602;10.976;2022-09-09T09:29:09;16.20;;;12.23;;
48199;SDS011;33990;44.602;10.976;2022-09-09T09:31:47;14.70;;;11.32;;
48199;SDS011;33990;44.602;10.976;2022-09-09T09:34:18;10.52;;;9.45;;
48199;SDS011;33990;44.602;10.976;2022-09-09T09:36:56;12.57;;;7.90;;
48199;SDS011;33990;44.602;10.976;2022-09-09T09:39:29;11.65;;;8.00;;
48199;SDS011;33990;44.602;10.976;2022-09-09T09:42:23;11.10;;;7.72;;
48199;SDS011;33990;44.602;10.976;2022-09-09T09:44:54;10.35;;;7.72;;
48199;SDS011;33990;44.602;10.976;2022-09-09T09:47:22;8.30;;;6.88;;
48199;SDS011;33990;44.602;10.976;2022-09-09T09:50:17;8.13;;;7.30;;
48199;SDS011;33990;44.602;10.976;2022-09-09T09:52:58;6.87;;;6.17;;
48199;SDS011;33990;44.602;10.976;2022-09-09T09:55:30;8.88;;;6.43;;
48199;SDS011;33990;44.602;10.976;2022-09-09T09:58:01;8.55;;;6.25;;
48199;SDS011;33990;44.602;10.976;2022-09-09T10:00:31;6.63;;;5.80;;
48199;SDS011;33990;44.602;10.976;2022-09-09T10:03:19;6.75;;;5.45;;
48199;SDS011;33990;44.602;10.976;2022-09-09T10:05:51;9.80;;;6.03;;
48199;SDS011;33990;44.602;10.976;2022-09-09T10:08:19;8.25;;;4.85;;
48199;SDS011;33990;44.602;10.976;2022-09-09T10:19:33;8.02;;;4.32;;
48199;SDS011;33990;44.602;10.976;2022-09-09T10:24:48;4.78;;;4.07;;
48199;SDS011;33990;44.602;10.976;2022-09-09T10:32:49;8.20;;;4.20;;
48199;SDS011;33990;44.602;10.976;2022-09-09T10:35:41;7.30;;;4.38;;
48199;SDS011;33990;44.602;10.976;2022-09-09T10:38:30;7.40;;;4.30;;
48199;SDS011;33990;44.602;10.976;2022-09-09T10:41:16;8.38;;;4.63;;
48199;SDS011;33990;44.602;10.976;2022-09-09T10:47:00;8.10;;;3.88;;
48199;SDS011;33990;44.602;10.976;2022-09-09T10:52:26;7.60;;;4.13;;
48199;SDS011;33990;44.602;10.976;2022-09-09T10:55:17;7.63;;;3.60;;
48199;SDS011;33990;44.602;10.976;2022-09-09T11:00:16;4.30;;;3.80;;
48199;SDS011;33990;44.602;10.976;2022-09-09T11:03:01;8.05;;;4.03;;
48199;SDS011;33990;44.602;10.976;2022-09-09T11:08:01;5.72;;;3.95;;
48199;SDS011;33990;44.602;10.976;2022-09-09T11:16:28;5.15;;;3.85;;
48199;SDS011;33990;44.602;10.976;2022-09-09T11:19:09;8.02;;;4.10;;
48199;SDS011;33990;44.602;10.976;2022-09-09T11:21:50;4.22;;;3.75;;
48199;SDS011;33990;44.602;10.976;2022-09-09T11:24:29;5.15;;;3.97;;
48199;SDS011;33990;44.602;10.976;2022-09-09T11:35:50;5.28;;;3.47;;
48199;SDS011;33990;44.602;10.976;2022-09-09T11:38:28;7.90;;;4.53;;
48199;SDS011;33990;44.602;10.976;2022-09-09T11:41:01;12.48;;;4.53;;
48199;SDS011;33990;44.602;10.976;2022-09-09T11:43:38;11.05;;;4.72;;
48199;SDS011;33990;44.602;10.976;2022-09-09T11:46:08;8.13;;;3.90;;
48199;SDS011;33990;44.602;10.976;2022-09-09T11:48:38;3.95;;;2.85;;
48199;SDS011;33990;44.602;10.976;2022-09-09T11:53:48;8.43;;;3.30;;
48199;SDS011;33990;44.602;10.976;2022-09-09T11:56:25;4.88;;;3.33;;
48199;SDS011;33990;44.602;10.976;2022-09-09T11:59:02;6.32;;;2.90;;
48199;SDS011;33990;44.602;10.976;2022-09-09T12:01:37;5.53;;;2.67;;
48199;SDS011;33990;44.602;10.976;2022-09-09T12:17:09;6.50;;;2.67;;
48199;SDS011;33990;44.602;10.976;2022-09-09T12:19:42;3.10;;;2.50;;
48199;SDS011;33990;44.602;10.976;2022-09-09T12:25:22;4.18;;;2.33;;
48199;SDS011;33990;44.602;10.976;2022-09-09T12:28:01;2.97;;;2.17;;
48199;SDS011;33990;44.602;10.976;2022-09-09T12:30:36;7.85;;;2.88;;
48199;SDS011;33990;44.602;10.976;2022-09-09T12:33:08;4.13;;;2.58;;
48199;SDS011;33990;44.602;10.976;2022-09-09T12:35:40;4.95;;;2.30;;
48199;SDS011;33990;44.602;10.976;2022-09-09T12:38:12;8.57;;;2.65;;
48199;SDS011;33990;44.602;10.976;2022-09-09T12:40:53;5.47;;;2.67;;
48199;SDS011;33990;44.602;10.976;2022-09-09T12:43:23;9.45;;;3.22;;
48199;SDS011;33990;44.602;10.976;2022-09-09T12:45:56;5.78;;;3.47;;
48199;SDS011;33990;44.602;10.976;2022-09-09T12:48:37;7.45;;;3.38;;
48199;SDS011;33990;44.602;10.976;2022-09-09T12:51:28;7.32;;;3.58;;
48199;SDS011;33990;44.602;10.976;2022-09-09T12:54:00;5.53;;;3.30;;
48199;SDS011;33990;44.602;10.976;2022-09-09T12:56:29;7.90;;;3.28;;
48199;SDS011;33990;44.602;10.976;2022-09-09T12:58:59;6.55;;;2.90;;
48199;SDS011;33990;44.602;10.976;2022-09-09T13:01:28;9.05;;;3.60;;
48199;SDS011;33990;44.602;10.976;2022-09-09T13:03:59;7.93;;;4.15;;
48199;SDS011;33990;44.602;10.976;2022-09-09T13:06:30;6.40;;;3.45;;
48199;SDS011;33990;44.602;10.976;2022-09-09T13:08:59;5.88;;;3.30;;
48199;SDS011;33990;44.602;10.976;2022-09-09T13:14:22;5.65;;;3.10;;
48199;SDS011;33990;44.602;10.976;2022-09-09T13:16:56;6.30;;;3.45;;
48199;SDS011;33990;44.602;10.976;2022-09-09T13:19:25;7.68;;;3.45;;
48199;SDS011;33990;44.602;10.976;2022-09-09T13:21:56;5.97;;;2.80;;
48199;SDS011;33990;44.602;10.976;2022-09-09T13:24:28;6.30;;;3.47;;
48199;SDS011;33990;44.602;10.976;2022-09-09T13:27:17;5.70;;;3.30;;
48199;SDS011;33990;44.602;10.976;2022-09-09T13:29:51;4.60;;;3.08;;
48199;SDS011;33990;44.602;10.976;2022-09-09T13:32:24;4.65;;;3.15;;
48199;SDS011;33990;44.602;10.976;2022-09-09T13:34:58;5.53;;;2.97;;
48199;SDS011;33990;44.602;10.976;2022-09-09T13:37:35;3.85;;;2.92;;
48199;SDS011;33990;44.602;10.976;2022-09-09T13:40:04;7.57;;;3.47;;
48199;SDS011;33990;44.602;10.976;2022-09-09T13:42:34;4.22;;;2.65;;
48199;SDS011;33990;44.602;10.976;2022-09-09T13:45:19;4.70;;;3.03;;
48199;SDS011;33990;44.602;10.976;2022-09-09T13:47:48;4.55;;;3.22;;
48199;SDS011;33990;44.602;10.976;2022-09-09T13:50:26;4.82;;;2.70;;
48199;SDS011;33990;44.602;10.976;2022-09-09T13:52:56;3.85;;;2.97;;
48199;SDS011;33990;44.602;10.976;2022-09-09T13:55:26;6.20;;;2.88;;
48199;SDS011;33990;44.602;10.976;2022-09-09T13:57:55;3.38;;;2.88;;
48199;SDS011;33990;44.602;10.976;2022-09-09T14:00:24;6.45;;;2.97;;
48199;SDS011;33990;44.602;10.976;2022-09-09T14:02:52;5.20;;;3.00;;
48199;SDS011;33990;44.602;10.976;2022-09-09T14:05:21;3.42;;;2.58;;
48199;SDS011;33990;44.602;10.976;2022-09-09T14:07:49;5.70;;;2.85;;
48199;SDS011;33990;44.602;10.976;2022-09-09T14:10:19;3.63;;;2.97;;
48199;SDS011;33990;44.602;10.976;2022-09-09T14:12:46;6.47;;;3.22;;
48199;SDS011;33990;44.602;10.976;2022-09-09T14:15:14;4.07;;;2.60;;
48199;SDS011;33990;44.602;10.976;2022-09-09T14:17:42;5.15;;;2.80;;
48199;SDS011;33990;44.602;10.976;2022-09-09T14:20:09;4.65;;;2.58;;
48199;SDS011;33990;44.602;10.976;2022-09-09T14:22:38;3.85;;;2.90;;
48199;SDS011;33990;44.602;10.976;2022-09-09T14:25:06;5.30;;;2.97;;
48199;SDS011;33990;44.602;10.976;2022-09-09T14:27:34;5.10;;;2.75;;
48199;SDS011;33990;44.602;10.976;2022-09-09T14:30:02;3.22;;;2.53;;
48199;SDS011;33990;44.602;10.976;2022-09-09T14:32:30;3.90;;;2.55;;
48199;SDS011;33990;44.602;10.976;2022-09-09T14:34:58;3.85;;;2.33;;
48199;SDS011;33990;44.602;10.976;2022-09-09T14:37:26;4.82;;;2.78;;
48199;SDS011;33990;44.602;10.976;2022-09-09T14:39:54;3.33;;;2.92;;
48199;SDS011;33990;44.602;10.976;2022-09-09T14:42:23;3.60;;;2.60;;
48199;SDS011;33990;44.602;10.976;2022-09-09T14:44:50;4.32;;;2.60;;
48199;SDS011;33990;44.602;10.976;2022-09-09T14:47:17;4.47;;;2.83;;
48199;SDS011;33990;44.602;10.976;2022-09-09T14:49:44;5.28;;;2.80;;
48199;SDS011;33990;44.602;10.976;2022-09-09T14:52:13;2.97;;;2.67;;
48199;SDS011;33990;44.602;10.976;2022-09-09T14:54:40;3.42;;;2.15;;
48199;SDS011;33990;44.602;10.976;2022-09-09T14:57:07;3.58;;;2.50;;
48199;SDS011;33990;44.602;10.976;2022-09-09T14:59:35;4.03;;;2.30;;
48199;SDS011;33990;44.602;10.976;2022-09-09T15:02:02;4.03;;;2.38;;
48199;SDS011;33990;44.602;10.976;2022-09-09T15:04:31;3.53;;;2.28;;
48199;SDS011;33990;44.602;10.976;2022-09-09T15:06:58;4.40;;;2.50;;
48199;SDS011;33990;44.602;10.976;2022-09-09T15:09:25;4.07;;;2.60;;
48199;SDS011;33990;44.602;10.976;2022-09-09T15:11:53;3.53;;;2.40;;
48199;SDS011;33990;44.602;10.976;2022-09-09T15:14:20;2.97;;;2.55;;
48199;SDS011;33990;44.602;10.976;2022-09-09T15:16:51;5.80;;;2.70;;
48199;SDS011;33990;44.602;10.976;2022-09-09T15:19:18;3.88;;;2.28;;
48199;SDS011;33990;44.602;10.976;2022-09-09T15:21:45;3.95;;;2.65;;
48199;SDS011;33990;44.602;10.976;2022-09-09T15:24:13;3.78;;;2.40;;
48199;SDS011;33990;44.602;10.976;2022-09-09T15:26:40;4.88;;;2.40;;
48199;SDS011;33990;44.602;10.976;2022-09-09T15:29:07;3.28;;;2.60;;
48199;SDS011;33990;44.602;10.976;2022-09-09T15:31:35;4.45;;;2.25;;
48199;SDS011;33990;44.602;10.976;2022-09-09T15:34:03;4.30;;;2.75;;
48199;SDS011;33990;44.602;10.976;2022-09-09T15:36:39;3.50;;;2.50;;
48199;SDS011;33990;44.602;10.976;2022-09-09T15:39:08;2.92;;;2.47;;
48199;SDS011;33990;44.602;10.976;2022-09-09T15:41:42;4.07;;;2.33;;
48199;SDS011;33990;44.602;10.976;2022-09-09T15:44:11;3.67;;;2.40;;
48199;SDS011;33990;44.602;10.976;2022-09-09T15:46:39;4.50;;;2.65;;
48199;SDS011;33990;44.602;10.976;2022-09-09T15:49:29;3.47;;;2.03;;
48199;SDS011;33990;44.602;10.976;2022-09-09T15:51:57;2.97;;;2.15;;
48199;SDS011;33990;44.602;10.976;2022-09-09T15:54:35;3.28;;;2.10;;
48199;SDS011;33990;44.602;10.976;2022-09-09T15:57:06;3.00;;;2.47;;
48199;SDS011;33990;44.602;10.976;2022-09-09T15:59:35;3.30;;;2.20;;
48199;SDS011;33990;44.602;10.976;2022-09-09T16:02:02;4.55;;;2.20;;
48199;SDS011;33990;44.602;10.976;2022-09-09T16:04:30;5.03;;;2.10;;
48199;SDS011;33990;44.602;10.976;2022-09-09T16:06:59;3.78;;;2.53;;
48199;SDS011;33990;44.602;10.976;2022-09-09T16:09:31;3.28;;;2.30;;
48199;SDS011;33990;44.602;10.976;2022-09-09T16:11:59;3.72;;;2.55;;
48199;SDS011;33990;44.602;10.976;2022-09-09T16:14:28;2.92;;;2.50;;
48199;SDS011;33990;44.602;10.976;2022-09-09T16:16:55;3.47;;;2.15;;
48199;SDS011;33990;44.602;10.976;2022-09-09T16:19:26;2.72;;;2.00;;
48199;SDS011;33990;44.602;10.976;2022-09-09T16:21:53;4.10;;;2.25;;
48199;SDS011;33990;44.602;10.976;2022-09-09T16:24:20;3.25;;;2.35;;
48199;SDS011;33990;44.602;10.976;2022-09-09T16:26:48;5.22;;;2.45;;
48199;SDS011;33990;44.602;10.976;2022-09-09T16:29:18;4.30;;;2.53;;
48199;SDS011;33990;44.602;10.976;2022-09-09T16:31:46;4.63;;;2.67;;
48199;SDS011;33990;44.602;10.976;2022-09-09T16:34:15;2.80;;;2.13;;
48199;SDS011;33990;44.602;10.976;2022-09-09T16:36:44;3.08;;;2.63;;
48199;SDS011;33990;44.602;10.976;2022-09-09T16:39:14;6.00;;;2.17;;
48199;SDS011;33990;44.602;10.976;2022-09-09T16:41:43;5.00;;;3.17;;
48199;SDS011;33990;44.602;10.976;2022-09-09T16:44:12;6.00;;;2.75;;
48199;SDS011;33990;44.602;10.976;2022-09-09T16:46:42;4.63;;;2.67;;
48199;SDS011;33990;44.602;10.976;2022-09-09T16:49:12;3.38;;;2.40;;
48199;SDS011;33990;44.602;10.976;2022-09-09T16:51:42;5.45;;;2.60;;
48199;SDS011;33990;44.602;10.976;2022-09-09T16:54:11;4.35;;;2.63;;
48199;SDS011;33990;44.602;10.976;2022-09-09T16:56:41;7.53;;;2.80;;
48199;SDS011;33990;44.602;10.976;2022-09-09T16:59:11;7.70;;;2.83;;
48199;SDS011;33990;44.602;10.976;2022-09-09T17:01:43;5.05;;;2.33;;
48199;SDS011;33990;44.602;10.976;2022-09-09T17:04:17;4.28;;;2.65;;
48199;SDS011;33990;44.602;10.976;2022-09-09T17:06:51;6.50;;;2.97;;
48199;SDS011;33990;44.602;10.976;2022-09-09T17:09:20;7.47;;;2.72;;
48199;SDS011;33990;44.602;10.976;2022-09-09T17:11:49;6.65;;;3.05;;
48199;SDS011;33990;44.602;10.976;2022-09-09T17:14:18;4.38;;;2.83;;
48199;SDS011;33990;44.602;10.976;2022-09-09T17:16:51;5.00;;;2.72;;
48199;SDS011;33990;44.602;10.976;2022-09-09T17:19:18;3.70;;;2.60;;
48199;SDS011;33990;44.602;10.976;2022-09-09T17:21:46;6.05;;;2.33;;
48199;SDS011;33990;44.602;10.976;2022-09-09T17:24:36;4.30;;;2.58;;
48199;SDS011;33990;44.602;10.976;2022-09-09T17:27:05;6.47;;;2.30;;
48199;SDS011;33990;44.602;10.976;2022-09-09T17:29:33;3.88;;;2.40;;
48199;SDS011;33990;44.602;10.976;2022-09-09T17:32:03;3.60;;;2.50;;